createdAt,value
2022-11-16T00:01:15.906Z,88.48
2022-11-16T00:03:43.271Z,88.47
2022-11-16T00:06:11.379Z,88.28
2022-11-16T00:08:42.895Z,88.57
2022-11-16T00:11:15.786Z,88.64
2022-11-16T00:13:46.522Z,88.51
2022-11-16T00:16:16.712Z,88.75
2022-11-16T00:18:44.582Z,88.67
2022-11-16T00:21:11.196Z,88.79
2022-11-16T00:23:39.016Z,88.81
2022-11-16T00:26:12.393Z,89.01
2022-11-16T00:28:38.913Z,88.78
2022-11-16T00:31:07.353Z,88.64
2022-11-16T00:33:34.498Z,88.72
2022-11-16T00:36:02.359Z,88.59
2022-11-16T00:38:29.093Z,88.79
2022-11-16T00:40:55.578Z,88.69
2022-11-16T00:43:22.080Z,89.14
2022-11-16T00:45:48.803Z,88.84
2022-11-16T00:48:15.351Z,88.39
2022-11-16T00:50:41.830Z,88.92
2022-11-16T00:53:11.957Z,88.89
2022-11-16T00:55:38.462Z,88.90
2022-11-16T00:58:04.965Z,88.76
2022-11-16T01:00:31.687Z,88.66
2022-11-16T01:02:58.214Z,88.95
2022-11-16T01:05:24.833Z,89.18
2022-11-16T01:07:52.104Z,88.92
2022-11-16T01:10:21.619Z,89.02
2022-11-16T01:12:49.202Z,88.75
2022-11-16T01:15:17.480Z,88.77
2022-11-16T01:17:44.134Z,88.66
2022-11-16T01:20:14.143Z,89.12
2022-11-16T01:22:41.191Z,89.28
2022-11-16T01:25:08.787Z,89.14
2022-11-16T01:27:35.371Z,89.15
2022-11-16T01:30:02.075Z,88.95
2022-11-16T01:32:28.602Z,89.00
2022-11-16T01:34:55.198Z,89.12
2022-11-16T01:37:21.741Z,89.17
2022-11-16T01:39:49.666Z,89.04
2022-11-16T01:42:21.634Z,89.92
2022-11-16T01:44:48.085Z,88.96
2022-11-16T01:47:16.723Z,88.80
2022-11-16T01:49:47.479Z,88.83
2022-11-16T01:52:18.212Z,89.27
2022-11-16T01:54:47.019Z,89.02
2022-11-16T01:57:20.551Z,88.72
2022-11-16T01:59:50.015Z,89.39
2022-11-16T02:02:16.666Z,88.93
2022-11-16T02:04:45.112Z,89.19
2022-11-16T02:07:29.945Z,88.81
2022-11-16T02:10:20.026Z,88.78
2022-11-16T02:13:13.661Z,89.02
2022-11-16T02:15:46.433Z,88.78
2022-11-16T02:18:37.875Z,88.84
2022-11-16T02:21:22.963Z,88.92
2022-11-16T02:23:58.611Z,89.13
2022-11-16T02:26:31.150Z,89.15
2022-11-16T02:29:21.405Z,88.77
2022-11-16T02:31:55.418Z,89.09
2022-11-16T02:34:23.697Z,88.88
2022-11-16T02:36:55.225Z,89.35
2022-11-16T02:39:27.055Z,89.12
2022-11-16T02:41:56.076Z,89.24
2022-11-16T02:44:29.149Z,89.13
2022-11-16T02:46:59.925Z,88.81
2022-11-16T02:49:28.923Z,89.14
2022-11-16T02:51:58.986Z,88.92
2022-11-16T02:54:25.680Z,89.05
2022-11-16T02:57:16.849Z,88.98
2022-11-16T02:59:48.424Z,89.30
2022-11-16T03:02:41.308Z,89.13
2022-11-16T03:05:07.873Z,89.16
2022-11-16T03:07:57.529Z,89.07
2022-11-16T03:10:42.656Z,89.00
2022-11-16T03:13:11.775Z,89.37
2022-11-16T03:15:39.864Z,89.32
2022-11-16T03:18:08.752Z,89.20
2022-11-16T03:20:37.934Z,89.39
2022-11-16T03:23:08.693Z,89.61
2022-11-16T03:25:46.344Z,89.26
2022-11-16T03:28:21.816Z,89.10
2022-11-16T03:30:59.898Z,88.86
2022-11-16T03:33:35.444Z,88.73
2022-11-16T03:36:09.617Z,88.48
2022-11-16T03:38:39.444Z,88.02
2022-11-16T03:41:08.767Z,88.43
2022-11-16T03:43:37.432Z,88.18
2022-11-16T03:46:04.847Z,87.62
2022-11-16T03:48:39.486Z,87.79
2022-11-16T03:51:08.958Z,87.33
2022-11-16T03:53:35.808Z,87.32
2022-11-16T03:56:02.539Z,86.85
2022-11-16T03:58:29.206Z,86.46
2022-11-16T04:00:55.893Z,86.76
2022-11-16T04:03:22.542Z,86.80
2022-11-16T04:06:07.727Z,86.58
2022-11-16T04:08:52.647Z,85.79
2022-11-16T04:11:40.629Z,85.74
2022-11-16T04:14:29.982Z,85.64
2022-11-16T04:17:14.841Z,85.58
2022-11-16T04:20:00.374Z,85.47
2022-11-16T04:22:52.263Z,85.50
2022-11-16T04:25:23.128Z,85.93
2022-11-16T04:28:08.239Z,86.22
2022-11-16T04:30:53.004Z,85.38
2022-11-16T04:33:42.769Z,85.50
2022-11-16T04:36:27.991Z,85.70
2022-11-16T04:38:54.540Z,85.23
2022-11-16T04:41:39.599Z,85.65
2022-11-16T04:44:06.117Z,86.09
2022-11-16T04:46:51.448Z,86.73
2022-11-16T04:49:17.968Z,85.88
2022-11-16T04:51:44.542Z,85.35
2022-11-16T04:54:11.133Z,84.76
2022-11-16T04:56:37.669Z,84.77
2022-11-16T04:59:04.259Z,84.69
2022-11-16T05:01:49.264Z,84.56
2022-11-16T05:04:15.759Z,84.26
2022-11-16T05:06:42.361Z,84.09
2022-11-16T05:09:08.929Z,83.89
2022-11-16T05:11:35.476Z,83.53
2022-11-16T05:14:02.553Z,83.42
2022-11-16T05:16:29.184Z,83.24
2022-11-16T05:19:13.982Z,83.70
2022-11-16T05:21:40.466Z,83.11
2022-11-16T05:24:25.366Z,82.81
2022-11-16T05:26:51.866Z,83.27
2022-11-16T05:29:18.387Z,82.85
2022-11-16T05:31:44.923Z,82.68
2022-11-16T05:34:11.632Z,82.57
2022-11-16T05:36:38.158Z,83.08
2022-11-16T05:39:05.560Z,82.70
2022-11-16T05:41:32.373Z,83.35
2022-11-16T05:43:59.342Z,82.64
2022-11-16T05:46:25.904Z,82.75
2022-11-16T05:48:52.445Z,82.89
2022-11-16T05:51:19.040Z,82.63
2022-11-16T05:53:45.661Z,82.35
2022-11-16T05:56:14.339Z,82.65
2022-11-16T05:58:41.142Z,82.77
2022-11-16T06:01:07.782Z,82.94
2022-11-16T06:03:36.256Z,82.00
2022-11-16T06:06:04.452Z,82.64
2022-11-16T06:08:31.556Z,82.07
2022-11-16T06:11:05.278Z,81.62
2022-11-16T06:13:32.635Z,82.25
2022-11-16T06:16:00.289Z,81.59
2022-11-16T06:18:27.003Z,82.23
2022-11-16T06:20:53.928Z,81.61
2022-11-16T06:23:20.629Z,81.17
2022-11-16T06:25:47.211Z,81.73
2022-11-16T06:28:14.959Z,81.52
2022-11-16T06:30:41.496Z,81.91
2022-11-16T06:33:08.843Z,81.67
2022-11-16T06:35:35.365Z,81.27
2022-11-16T06:38:01.929Z,81.20
2022-11-16T06:40:28.444Z,80.81
2022-11-16T06:42:57.141Z,80.68
2022-11-16T06:45:23.814Z,80.37
2022-11-16T06:47:50.288Z,80.85
2022-11-16T06:50:20.041Z,81.64
2022-11-16T06:52:47.493Z,81.83
2022-11-16T06:55:14.438Z,81.74
2022-11-16T06:57:41.139Z,81.94
2022-11-16T07:00:10.040Z,81.11
2022-11-16T07:02:38.001Z,81.36
2022-11-16T07:05:05.211Z,81.41
2022-11-16T07:07:32.684Z,81.56
2022-11-16T07:09:59.406Z,81.49
2022-11-16T07:12:26.626Z,81.02
2022-11-16T07:14:53.182Z,81.44
2022-11-16T07:17:19.773Z,81.09
2022-11-16T07:19:46.326Z,80.92
2022-11-16T07:22:12.919Z,80.77
2022-11-16T07:24:39.548Z,80.86
2022-11-16T07:27:07.671Z,80.35
2022-11-16T07:29:34.357Z,80.59
2022-11-16T07:32:00.874Z,80.24
2022-11-16T07:34:27.478Z,80.67
2022-11-16T07:36:54.046Z,80.13
2022-11-16T07:39:21.895Z,79.88
2022-11-16T07:41:50.453Z,79.74
2022-11-16T07:44:17.104Z,79.55
2022-11-16T07:46:46.964Z,79.40
2022-11-16T07:49:15.750Z,79.12
2022-11-16T07:51:42.790Z,79.84
2022-11-16T07:54:12.440Z,79.11
2022-11-16T07:56:39.097Z,78.88
2022-11-16T07:59:06.092Z,79.30
2022-11-16T08:01:33.414Z,78.71
2022-11-16T08:04:01.755Z,78.77
2022-11-16T08:06:30.858Z,78.26
2022-11-16T08:08:58.993Z,78.06
2022-11-16T08:11:26.151Z,78.18
2022-11-16T08:13:52.770Z,79.51
2022-11-16T08:16:21.377Z,78.85
2022-11-16T08:18:48.144Z,78.38
2022-11-16T08:21:16.370Z,77.62
2022-11-16T08:23:44.920Z,77.50
2022-11-16T08:26:17.113Z,77.42
2022-11-16T08:28:45.403Z,77.38
2022-11-16T08:31:18.656Z,77.08
2022-11-16T08:33:45.498Z,76.98
2022-11-16T08:36:17.241Z,77.11
2022-11-16T08:38:53.428Z,77.47
2022-11-16T08:41:20.525Z,77.43
2022-11-16T08:43:47.726Z,77.19
2022-11-16T08:46:14.797Z,76.10
2022-11-16T08:48:41.517Z,78.29
2022-11-16T08:51:19.199Z,76.68
2022-11-16T08:53:48.242Z,75.72
2022-11-16T08:56:16.465Z,75.66
2022-11-16T08:58:44.311Z,75.53
2022-11-16T09:01:19.943Z,75.84
2022-11-16T09:03:46.474Z,75.78
2022-11-16T09:06:14.219Z,75.60
2022-11-16T09:08:42.415Z,75.17
2022-11-16T09:11:12.295Z,74.90
2022-11-16T09:13:39.171Z,73.99
2022-11-16T09:16:05.971Z,73.74
2022-11-16T09:18:33.027Z,74.01
2022-11-16T09:20:59.905Z,73.60
2022-11-16T09:23:26.570Z,73.96
2022-11-16T09:25:54.773Z,73.65
2022-11-16T09:28:22.267Z,74.09
2022-11-16T09:30:51.182Z,73.72
2022-11-16T09:33:18.278Z,73.50
2022-11-16T09:35:45.082Z,73.21
2022-11-16T09:38:14.875Z,73.19
2022-11-16T09:40:47.751Z,73.21
2022-11-16T09:43:16.849Z,73.00
2022-11-16T09:46:03.171Z,73.79
2022-11-16T09:48:33.111Z,73.93
2022-11-16T09:51:08.123Z,74.51
2022-11-16T09:53:59.850Z,74.54
2022-11-16T09:56:28.539Z,73.93
2022-11-16T09:59:16.717Z,73.16
2022-11-16T10:02:16.716Z,73.48
2022-11-16T10:04:55.207Z,73.27
2022-11-16T10:07:35.457Z,74.59
2022-11-16T10:10:02.077Z,74.42
2022-11-16T10:12:46.287Z,73.34
2022-11-16T10:15:28.319Z,73.18
2022-11-16T10:18:37.284Z,72.51
2022-11-16T10:21:16.313Z,72.53
2022-11-16T10:24:01.523Z,72.19
2022-11-16T10:26:40.348Z,72.86
2022-11-16T10:29:22.046Z,71.77
2022-11-16T10:32:00.657Z,72.31
2022-11-16T10:34:36.424Z,73.14
2022-11-16T10:37:11.616Z,71.37
2022-11-16T10:39:41.310Z,71.76
2022-11-16T10:42:17.070Z,71.66
2022-11-16T10:45:29.748Z,71.38
2022-11-16T10:48:41.236Z,71.62
2022-11-16T10:51:09.812Z,69.93
2022-11-16T10:53:39.952Z,70.72
2022-11-16T10:56:40.466Z,70.43
2022-11-16T10:59:09.801Z,70.96
2022-11-16T11:01:39.446Z,70.65
2022-11-16T11:04:27.505Z,70.09
2022-11-16T11:07:02.077Z,69.37
2022-11-16T11:09:35.309Z,69.76
2022-11-16T11:12:37.999Z,70.64
2022-11-16T11:15:04.629Z,69.34
2022-11-16T11:17:32.927Z,69.92
2022-11-16T11:20:03.657Z,71.32
2022-11-16T11:22:33.132Z,70.05
2022-11-16T11:25:03.238Z,70.17
2022-11-16T11:27:34.740Z,69.19
2022-11-16T11:30:01.869Z,69.26
2022-11-16T11:32:38.680Z,68.22
2022-11-16T11:35:06.565Z,68.38
2022-11-16T11:37:37.756Z,69.10
2022-11-16T11:40:05.710Z,69.09
2022-11-16T11:42:32.265Z,68.93
2022-11-16T11:45:03.390Z,68.58
2022-11-16T11:47:59.013Z,69.53
2022-11-16T11:50:57.638Z,67.57
2022-11-16T11:53:35.641Z,68.48
2022-11-16T11:56:02.421Z,67.62
2022-11-16T11:58:38.609Z,68.07
2022-11-16T12:01:32.462Z,68.08
2022-11-16T12:04:08.085Z,67.23
2022-11-16T12:06:49.466Z,68.21
2022-11-16T12:09:19.117Z,68.83
2022-11-16T12:12:05.993Z,68.79
2022-11-16T12:14:52.603Z,70.18
2022-11-16T12:17:45.469Z,67.50
2022-11-16T12:20:25.802Z,68.74
2022-11-16T12:23:10.266Z,69.13
2022-11-16T12:25:44.248Z,70.03
2022-11-16T12:28:38.509Z,69.92
2022-11-16T12:31:27.301Z,70.72
2022-11-16T12:34:24.737Z,69.81
2022-11-16T12:37:20.383Z,70.34
2022-11-16T12:40:10.092Z,69.79
2022-11-16T12:42:45.556Z,71.47
2022-11-16T12:45:32.836Z,71.31
2022-11-16T12:47:59.466Z,70.65
2022-11-16T12:50:41.295Z,70.70
2022-11-16T12:53:26.442Z,71.63
2022-11-16T12:56:14.675Z,73.44
2022-11-16T12:59:25.930Z,72.37
2022-11-16T13:02:01.464Z,73.50
2022-11-16T13:04:31.267Z,74.64
2022-11-16T13:07:11.255Z,73.25
2022-11-16T13:09:43.423Z,73.46
2022-11-16T13:12:15.409Z,75.10
2022-11-16T13:14:45.878Z,75.87
2022-11-16T13:17:21.222Z,76.17
2022-11-16T13:20:09.066Z,76.84
2022-11-16T13:22:50.886Z,76.80
2022-11-16T13:25:21.006Z,78.50
2022-11-16T13:27:53.558Z,78.22
2022-11-16T13:30:22.189Z,79.27
2022-11-16T13:33:28.583Z,78.97
2022-11-16T13:35:55.342Z,80.61
2022-11-16T13:38:52.303Z,80.36
2022-11-16T13:41:35.188Z,81.19
2022-11-16T13:44:13.395Z,81.92
2022-11-16T13:46:57.590Z,81.75
2022-11-16T13:49:35.427Z,82.48
2022-11-16T13:52:21.934Z,81.19
2022-11-16T13:54:55.420Z,81.32
2022-11-16T13:57:36.182Z,81.56
2022-11-16T14:00:04.894Z,80.74
2022-11-16T14:02:40.294Z,79.85
2022-11-16T14:05:12.848Z,79.64
2022-11-16T14:07:43.072Z,80.07
2022-11-16T14:10:11.517Z,79.09
2022-11-16T14:12:38.267Z,79.59
2022-11-16T14:15:15.405Z,79.17
2022-11-16T14:17:57.983Z,81.84
2022-11-16T14:20:50.952Z,81.82
2022-11-16T14:23:30.778Z,81.21
2022-11-16T14:26:16.597Z,82.27
2022-11-16T14:28:51.107Z,82.24
2022-11-16T14:31:25.603Z,82.03
2022-11-16T14:33:55.357Z,83.77
2022-11-16T14:36:43.165Z,83.25
2022-11-16T14:39:21.859Z,84.28
2022-11-16T14:41:48.396Z,84.07
2022-11-16T14:44:20.156Z,83.88
2022-11-16T14:46:46.866Z,86.42
2022-11-16T14:49:16.478Z,83.98
2022-11-16T14:51:47.616Z,84.15
2022-11-16T14:54:27.432Z,83.55
2022-11-16T14:56:59.322Z,82.08
2022-11-16T14:59:26.442Z,83.52
2022-11-16T15:01:53.471Z,83.26
2022-11-16T15:04:22.204Z,83.48
2022-11-16T15:06:58.568Z,83.74
2022-11-16T15:09:34.557Z,84.15
2022-11-16T15:12:22.116Z,86.12
2022-11-16T15:14:54.787Z,86.32
2022-11-16T15:17:30.161Z,87.08
2022-11-16T15:20:23.048Z,88.50
2022-11-16T15:22:54.793Z,87.64
2022-11-16T15:25:31.950Z,88.26
2022-11-16T15:28:01.947Z,88.91
2022-11-16T15:30:32.994Z,88.61
2022-11-16T15:33:02.971Z,87.32
2022-11-16T15:35:34.920Z,87.99
2022-11-16T15:38:01.403Z,87.45
2022-11-16T15:40:29.590Z,87.53
2022-11-16T15:42:59.362Z,87.23
2022-11-16T15:45:26.586Z,87.40
2022-11-16T15:47:54.173Z,89.32
2022-11-16T15:50:25.446Z,89.77
2022-11-16T15:52:55.357Z,89.23
2022-11-16T15:55:31.834Z,88.58
2022-11-16T15:58:02.894Z,88.76
2022-11-16T16:00:31.491Z,88.80
2022-11-16T16:03:05.253Z,89.22
2022-11-16T16:05:39.812Z,88.79
2022-11-16T16:08:23.203Z,89.33
2022-11-16T16:10:59.544Z,90.74
2022-11-16T16:13:30.129Z,90.97
2022-11-16T16:16:21.185Z,91.20
2022-11-16T16:18:48.089Z,91.25
2022-11-16T16:21:14.719Z,91.30
2022-11-16T16:23:51.423Z,92.07
2022-11-16T16:26:18.533Z,91.58
2022-11-16T16:28:45.485Z,91.81
2022-11-16T16:31:12.821Z,92.09
2022-11-16T16:33:39.472Z,92.12
2022-11-16T16:36:06.976Z,92.23
2022-11-16T16:38:33.562Z,92.09
2022-11-16T16:41:05.257Z,92.45
2022-11-16T16:43:32.804Z,92.23
2022-11-16T16:46:03.915Z,92.72
2022-11-16T16:48:32.037Z,92.59
2022-11-16T16:50:58.682Z,92.63
2022-11-16T16:53:26.558Z,92.10
2022-11-16T16:55:53.242Z,92.14
2022-11-16T16:58:20.072Z,92.02
2022-11-16T17:00:46.741Z,92.45
2022-11-16T17:03:13.489Z,92.29
2022-11-16T17:05:41.105Z,92.66
2022-11-16T17:08:08.006Z,93.38
2022-11-16T17:10:36.877Z,92.49
2022-11-16T17:13:03.895Z,92.46
2022-11-16T17:15:30.762Z,92.55
2022-11-16T17:17:58.941Z,92.95
2022-11-16T17:20:25.994Z,92.83
2022-11-16T17:22:52.813Z,92.57
2022-11-16T17:25:20.777Z,92.76
2022-11-16T17:27:47.535Z,92.82
2022-11-16T17:30:14.666Z,92.41
2022-11-16T17:32:41.506Z,92.55
2022-11-16T17:35:08.731Z,92.90
2022-11-16T17:37:38.689Z,92.67
2022-11-16T17:40:05.972Z,92.62
2022-11-16T17:42:35.677Z,92.25
2022-11-16T17:45:03.027Z,92.02
2022-11-16T17:47:33.592Z,92.29
2022-11-16T17:50:00.278Z,92.50
2022-11-16T17:52:26.972Z,92.67
2022-11-16T17:54:53.507Z,92.28
2022-11-16T17:57:20.168Z,93.14
2022-11-16T17:59:47.827Z,93.42
2022-11-16T18:02:14.487Z,92.98
2022-11-16T18:04:41.304Z,93.01
2022-11-16T18:07:07.986Z,92.61
2022-11-16T18:09:34.576Z,93.17
2022-11-16T18:12:01.220Z,93.21
2022-11-16T18:14:27.856Z,92.94
2022-11-16T18:16:54.659Z,93.05
2022-11-16T18:19:21.355Z,91.69
2022-11-16T18:21:48.920Z,92.25
2022-11-16T18:24:15.787Z,92.44
2022-11-16T18:26:42.593Z,92.16
2022-11-16T18:29:12.826Z,92.30
2022-11-16T18:31:40.337Z,93.05
2022-11-16T18:34:06.912Z,92.80
2022-11-16T18:36:33.764Z,92.73
2022-11-16T18:39:00.281Z,93.04
2022-11-16T18:41:29.802Z,92.98
2022-11-16T18:43:58.778Z,92.96
2022-11-16T18:46:32.645Z,92.76
2022-11-16T18:48:59.971Z,92.24
2022-11-16T18:51:28.398Z,91.70
2022-11-16T18:53:55.422Z,91.95
2022-11-16T18:56:22.720Z,92.13
2022-11-16T18:58:51.302Z,92.04
2022-11-16T19:01:22.235Z,92.33
2022-11-16T19:03:49.167Z,91.85
2022-11-16T19:06:17.603Z,91.50
2022-11-16T19:08:49.052Z,91.99
2022-11-16T19:11:20.490Z,91.54
2022-11-16T19:13:52.784Z,91.91
2022-11-16T19:16:19.349Z,91.34
2022-11-16T19:18:45.818Z,91.09
2022-11-16T19:21:15.002Z,91.23
2022-11-16T19:23:43.448Z,91.29
2022-11-16T19:26:12.785Z,91.88
2022-11-16T19:28:41.647Z,90.83
2022-11-16T19:31:08.407Z,91.39
2022-11-16T19:33:35.405Z,90.13
2022-11-16T19:36:16.346Z,91.40
2022-11-16T19:38:44.360Z,91.44
2022-11-16T19:41:12.758Z,90.82
2022-11-16T19:43:39.709Z,91.23
2022-11-16T19:46:11.695Z,90.59
2022-11-16T19:48:38.583Z,90.79
2022-11-16T19:51:10.136Z,90.44
2022-11-16T19:53:38.052Z,91.66
2022-11-16T19:56:06.443Z,91.25
2022-11-16T19:58:37.091Z,91.64
2022-11-16T20:01:14.971Z,91.58
2022-11-16T20:03:42.218Z,91.84
2022-11-16T20:06:14.905Z,90.66
2022-11-16T20:08:42.945Z,90.91
2022-11-16T20:11:22.791Z,91.29
2022-11-16T20:13:51.417Z,91.32
2022-11-16T20:16:19.624Z,91.62
2022-11-16T20:18:46.702Z,91.02
2022-11-16T20:21:18.948Z,90.98
2022-11-16T20:23:45.600Z,91.70
2022-11-16T20:26:13.613Z,91.23
2022-11-16T20:28:42.095Z,91.59
2022-11-16T20:31:11.813Z,90.89
2022-11-16T20:33:38.740Z,90.77
2022-11-16T20:36:08.652Z,90.39
2022-11-16T20:38:36.498Z,90.91
2022-11-16T20:41:13.602Z,90.38
2022-11-16T20:43:41.123Z,90.62
2022-11-16T20:46:09.420Z,91.14
2022-11-16T20:48:36.471Z,90.10
2022-11-16T20:51:03.440Z,90.38
2022-11-16T20:53:29.922Z,91.27
2022-11-16T20:55:57.538Z,90.89
2022-11-16T20:58:24.552Z,91.36
2022-11-16T21:00:51.567Z,90.56
2022-11-16T21:03:18.169Z,90.53
2022-11-16T21:05:46.392Z,90.47
2022-11-16T21:08:13.202Z,90.29
2022-11-16T21:10:40.285Z,90.39
2022-11-16T21:13:30.796Z,90.40
2022-11-16T21:16:00.236Z,91.33
2022-11-16T21:18:30.755Z,91.16
2022-11-16T21:21:03.326Z,90.73
2022-11-16T21:23:32.104Z,90.14
2022-11-16T21:26:06.854Z,91.03
2022-11-16T21:28:34.273Z,91.35
2022-11-16T21:31:06.093Z,91.42
2022-11-16T21:33:33.577Z,90.37
2022-11-16T21:36:08.255Z,91.13
2022-11-16T21:38:34.913Z,92.05
2022-11-16T21:41:01.971Z,91.29
2022-11-16T21:43:28.575Z,90.76
2022-11-16T21:46:01.972Z,90.89
2022-11-16T21:48:28.717Z,91.46
2022-11-16T21:51:06.609Z,91.69
2022-11-16T21:53:34.190Z,90.74
2022-11-16T21:56:01.719Z,91.15
2022-11-16T21:58:28.233Z,90.74
2022-11-16T22:00:56.684Z,90.38
2022-11-16T22:03:28.392Z,90.43
2022-11-16T22:06:15.475Z,90.94
2022-11-16T22:08:42.490Z,90.79
2022-11-16T22:11:09.620Z,90.69
2022-11-16T22:13:37.393Z,90.70
2022-11-16T22:16:09.145Z,90.24
2022-11-16T22:18:36.399Z,90.44
2022-11-16T22:21:03.287Z,90.76
2022-11-16T22:23:29.960Z,90.86
2022-11-16T22:26:04.973Z,90.63
2022-11-16T22:28:32.584Z,91.14
2022-11-16T22:31:01.345Z,90.86
2022-11-16T22:33:28.786Z,90.99
2022-11-16T22:35:55.475Z,90.26
2022-11-16T22:38:22.514Z,90.63
2022-11-16T22:40:50.737Z,90.25
2022-11-16T22:43:18.201Z,90.39
2022-11-16T22:45:44.751Z,90.62
2022-11-16T22:48:11.244Z,89.83
2022-11-16T22:50:37.793Z,88.84
2022-11-16T22:53:04.492Z,89.91
2022-11-16T22:55:34.789Z,89.46
2022-11-16T22:58:01.373Z,90.09
2022-11-16T23:00:27.888Z,89.52
2022-11-16T23:02:54.698Z,89.05
2022-11-16T23:05:21.239Z,89.83
2022-11-16T23:07:47.727Z,89.43
2022-11-16T23:10:15.471Z,89.70
2022-11-16T23:13:00.600Z,89.00
2022-11-16T23:15:49.921Z,88.33
2022-11-16T23:18:17.543Z,87.75
2022-11-16T23:21:02.747Z,88.54
2022-11-16T23:23:47.611Z,89.77
2022-11-16T23:26:40.943Z,88.76
2022-11-16T23:29:11.369Z,88.87
2022-11-16T23:31:38.352Z,88.24
2022-11-16T23:34:05.391Z,87.99
2022-11-16T23:36:32.064Z,87.13
2022-11-16T23:38:58.562Z,87.98
2022-11-16T23:41:43.534Z,87.58
2022-11-16T23:44:10.105Z,87.84
2022-11-16T23:46:36.682Z,88.24
2022-11-16T23:49:03.271Z,88.32
2022-11-16T23:51:29.763Z,87.50
2022-11-16T23:53:56.459Z,87.43
2022-11-16T23:56:23.655Z,87.47
2022-11-16T23:58:50.217Z,88.04
